Time;durP1;ratioP1;P1;durP2;ratioP2;P2;SDS_P1;SDS_P2;PMS_P1;PMS_P2;Temp;Humidity;BMP_temperature;BMP_pressure;BME280_temperature;BME280_humidity;BME280_pressure;Samples;Min_cycle;Max_cycle;Signal;HPM_P1;HPM_P2
2022/04/10 00:00:54;;;;;;;13.88;2.80;;;;;;;;;;5114504;28;20089;-71
2022/04/10 00:03:22;;;;;;;13.88;2.88;;;;;;;;;;5113843;28;20075;-70
2022/04/10 00:05:49;;;;;;;12.00;2.30;;;;;;;;;;5114773;28;20043;-70
2022/04/10 00:08:15;;;;;;;10.50;2.15;;;;;;;;;;5111447;28;20040;-70
2022/04/10 00:10:41;;;;;;;11.02;2.38;;;;;;;;;;5114328;28;20044;-70
2022/04/10 00:13:07;;;;;;;14.85;2.22;;;;;;;;;;5112594;28;20056;-71
2022/04/10 00:15:33;;;;;;;15.55;2.30;;;;;;;;;;5112166;28;20047;-70
2022/04/10 00:17:59;;;;;;;13.32;2.72;;;;;;;;;;5112516;28;20080;-70
2022/04/10 00:20:25;;;;;;;12.93;2.50;;;;;;;;;;5109909;28;20043;-69
2022/04/10 00:22:51;;;;;;;12.13;2.28;;;;;;;;;;5108635;28;20387;-70
2022/04/10 00:25:18;;;;;;;11.85;2.45;;;;;;;;;;5095051;28;20144;-71
2022/04/10 00:27:44;;;;;;;12.65;2.35;;;;;;;;;;5106368;28;20040;-71
2022/04/10 00:30:11;;;;;;;10.38;2.17;;;;;;;;;;5099126;28;20036;-70
2022/04/10 00:32:37;;;;;;;14.32;2.50;;;;;;;;;;5103504;28;20036;-70
2022/04/10 00:35:05;;;;;;;13.30;2.72;;;;;;;;;;5113374;28;20093;-70
2022/04/10 00:37:31;;;;;;;15.40;3.17;;;;;;;;;;5113038;28;20050;-71
2022/04/10 00:39:57;;;;;;;14.40;2.90;;;;;;;;;;5106472;28;20411;-71
2022/04/10 00:42:30;;;;;;;11.45;2.30;;;;;;;;;;5093484;28;20578;-70
2022/04/10 00:44:56;;;;;;;13.80;2.53;;;;;;;;;;5109759;28;20483;-70
2022/04/10 00:47:22;;;;;;;15.82;2.65;;;;;;;;;;5112236;28;21067;-71
2022/04/10 00:49:48;;;;;;;14.68;2.95;;;;;;;;;;5091551;28;20048;-69
2022/04/10 00:52:15;;;;;;;17.23;3.05;;;;;;;;;;5095980;27;20047;-70
2022/04/10 00:54:41;;;;;;;14.20;2.38;;;;;;;;;;5112095;28;20038;-70
2022/04/10 00:57:07;;;;;;;14.70;2.40;;;;;;;;;;5079229;28;20096;-70
2022/04/10 00:59:33;;;;;;;17.13;2.80;;;;;;;;;;5113207;28;20486;-70
2022/04/10 01:01:59;;;;;;;11.05;2.28;;;;;;;;;;5109040;28;20490;-70
2022/04/10 01:04:25;;;;;;;16.02;2.40;;;;;;;;;;5107756;28;20057;-71
2022/04/10 01:06:53;;;;;;;16.45;3.03;;;;;;;;;;5111790;28;20406;-70
2022/04/10 01:09:20;;;;;;;16.63;2.53;;;;;;;;;;5104209;28;20059;-70
2022/04/10 01:11:46;;;;;;;15.02;2.63;;;;;;;;;;5111132;28;20499;-70
2022/04/10 01:14:13;;;;;;;18.58;2.97;;;;;;;;;;5108679;28;20036;-69
2022/04/10 01:16:41;;;;;;;12.18;2.67;;;;;;;;;;5112201;28;20101;-70
2022/04/10 01:19:07;;;;;;;19.63;3.20;;;;;;;;;;5110964;28;20521;-69
2022/04/10 01:21:38;;;;;;;16.67;2.83;;;;;;;;;;5108547;28;20441;-70
2022/04/10 01:24:05;;;;;;;20.02;3.10;;;;;;;;;;5088628;28;20126;-70
2022/04/10 01:26:31;;;;;;;16.05;2.47;;;;;;;;;;5090425;28;20441;-70
2022/04/10 01:28:58;;;;;;;19.20;2.95;;;;;;;;;;5096633;28;20046;-70
2022/04/10 01:31:24;;;;;;;17.88;2.70;;;;;;;;;;5092206;28;20051;-70
2022/04/10 01:33:51;;;;;;;13.38;2.85;;;;;;;;;;5112255;28;20048;-70
2022/04/10 01:36:17;;;;;;;19.13;2.95;;;;;;;;;;5113312;28;20043;-71
2022/04/10 01:38:44;;;;;;;11.27;2.63;;;;;;;;;;5111046;28;20086;-70
2022/04/10 01:41:14;;;;;;;12.80;2.75;;;;;;;;;;5107945;28;20040;-70
2022/04/10 01:43:46;;;;;;;15.55;2.58;;;;;;;;;;5102787;28;20040;-70
2022/04/10 01:46:13;;;;;;;17.98;3.05;;;;;;;;;;5107574;28;20466;-70
2022/04/10 01:48:39;;;;;;;15.65;2.50;;;;;;;;;;5109769;28;20118;-71
2022/04/10 01:51:05;;;;;;;18.08;2.90;;;;;;;;;;5106704;28;20569;-70
2022/04/10 01:53:31;;;;;;;17.92;2.55;;;;;;;;;;5101661;28;20051;-70
2022/04/10 01:55:57;;;;;;;15.70;2.70;;;;;;;;;;5108260;28;20051;-70
2022/04/10 01:58:23;;;;;;;15.65;2.78;;;;;;;;;;5111258;28;20040;-71
2022/04/10 02:00:49;;;;;;;17.05;2.75;;;;;;;;;;5112445;28;20046;-71
2022/04/10 02:03:15;;;;;;;20.02;3.05;;;;;;;;;;5109771;28;20036;-70
2022/04/10 02:05:41;;;;;;;18.27;2.88;;;;;;;;;;5107192;28;20044;-70
2022/04/10 02:08:07;;;;;;;17.52;2.65;;;;;;;;;;5108461;28;20048;-70
2022/04/10 02:10:34;;;;;;;19.10;2.80;;;;;;;;;;5112468;28;20036;-71
2022/04/10 02:13:01;;;;;;;18.42;2.95;;;;;;;;;;5111853;28;20047;-70
2022/04/10 02:15:27;;;;;;;18.25;3.08;;;;;;;;;;5109869;28;20039;-71
2022/04/10 02:17:53;;;;;;;15.77;2.50;;;;;;;;;;5111376;28;20044;-71
2022/04/10 02:20:19;;;;;;;15.68;2.97;;;;;;;;;;5073104;28;20048;-69
2022/04/10 02:22:45;;;;;;;16.35;3.00;;;;;;;;;;5106963;28;20448;-71
2022/04/10 02:25:11;;;;;;;20.08;3.42;;;;;;;;;;5110939;28;20418;-70
2022/04/10 02:27:37;;;;;;;17.42;3.05;;;;;;;;;;5114426;28;20047;-71
2022/04/10 02:30:03;;;;;;;14.77;2.72;;;;;;;;;;5115159;28;20502;-71
2022/04/10 02:32:30;;;;;;;13.27;2.85;;;;;;;;;;5116368;28;21032;-71
2022/04/10 02:34:56;;;;;;;16.92;2.92;;;;;;;;;;5078111;28;20089;-71
2022/04/10 02:37:22;;;;;;;17.48;2.92;;;;;;;;;;5115563;28;20088;-70
2022/04/10 02:39:48;;;;;;;18.88;2.88;;;;;;;;;;5084212;28;20402;-71
2022/04/10 02:42:14;;;;;;;18.33;3.03;;;;;;;;;;5096706;28;20498;-69
2022/04/10 02:44:41;;;;;;;16.08;2.72;;;;;;;;;;5114942;28;20093;-70
2022/04/10 02:47:07;;;;;;;18.02;3.05;;;;;;;;;;5115673;28;20082;-69
2022/04/10 02:49:33;;;;;;;15.63;2.92;;;;;;;;;;5115261;28;20051;-71
2022/04/10 02:51:59;;;;;;;15.48;3.03;;;;;;;;;;5078797;28;20043;-70
2022/04/10 02:54:25;;;;;;;21.27;3.30;;;;;;;;;;5114899;28;20042;-71
2022/04/10 02:56:51;;;;;;;16.80;2.92;;;;;;;;;;5113754;28;20039;-71
2022/04/10 02:59:17;;;;;;;18.08;3.03;;;;;;;;;;5116170;28;20047;-71
2022/04/10 03:01:43;;;;;;;14.15;2.75;;;;;;;;;;5115586;28;20047;-70
2022/04/10 03:04:09;;;;;;;11.80;2.83;;;;;;;;;;5114957;28;20035;-71
2022/04/10 03:06:35;;;;;;;21.77;3.67;;;;;;;;;;5114937;28;20055;-71
2022/04/10 03:09:02;;;;;;;14.02;2.65;;;;;;;;;;5115558;28;20039;-71
2022/04/10 03:11:28;;;;;;;14.05;2.75;;;;;;;;;;5114276;28;20039;-71
2022/04/10 03:13:54;;;;;;;12.48;2.38;;;;;;;;;;5115131;28;20059;-69
2022/04/10 03:16:20;;;;;;;13.35;2.40;;;;;;;;;;5114646;28;20164;-71
2022/04/10 03:18:46;;;;;;;15.95;3.15;;;;;;;;;;5115151;28;20064;-71
2022/04/10 03:21:12;;;;;;;15.27;3.00;;;;;;;;;;5106428;28;20126;-70
2022/04/10 03:23:38;;;;;;;22.23;3.22;;;;;;;;;;5113752;28;20039;-70
2022/04/10 03:26:04;;;;;;;12.38;2.50;;;;;;;;;;5111467;28;20403;-70
2022/04/10 03:28:30;;;;;;;16.48;2.95;;;;;;;;;;5080857;28;20058;-70
2022/04/10 03:30:59;;;;;;;21.73;3.17;;;;;;;;;;5095379;28;20047;-71
2022/04/10 03:33:25;;;;;;;20.20;2.70;;;;;;;;;;5112368;28;20130;-71
2022/04/10 03:35:52;;;;;;;18.17;3.13;;;;;;;;;;5114645;28;20551;-70
2022/04/10 03:38:18;;;;;;;14.95;3.28;;;;;;;;;;5115043;28;20039;-70
2022/04/10 03:40:45;;;;;;;13.52;2.30;;;;;;;;;;5113990;28;20056;-70
2022/04/10 03:43:14;;;;;;;13.93;2.65;;;;;;;;;;5114491;28;20079;-70
2022/04/10 03:45:40;;;;;;;13.48;2.47;;;;;;;;;;5107031;28;20031;-71
2022/04/10 03:48:07;;;;;;;14.88;2.65;;;;;;;;;;5104812;28;20058;-70
2022/04/10 03:50:33;;;;;;;11.48;3.10;;;;;;;;;;5114101;28;20044;-70
2022/04/10 03:53:00;;;;;;;13.40;2.80;;;;;;;;;;5114089;28;20040;-69
2022/04/10 03:55:26;;;;;;;16.73;2.65;;;;;;;;;;5113267;28;20039;-71
2022/04/10 03:57:52;;;;;;;13.05;2.70;;;;;;;;;;5113002;28;20043;-71
2022/04/10 04:00:21;;;;;;;17.50;2.75;;;;;;;;;;5113885;28;20395;-71
2022/04/10 04:02:47;;;;;;;13.20;2.65;;;;;;;;;;5114749;28;20040;-69
2022/04/10 04:05:13;;;;;;;15.85;2.60;;;;;;;;;;5112564;28;20047;-71
2022/04/10 04:07:40;;;;;;;17.65;2.05;;;;;;;;;;5114668;28;20380;-71
2022/04/10 04:10:07;;;;;;;13.45;2.45;;;;;;;;;;5111729;28;20046;-70
2022/04/10 04:12:36;;;;;;;11.20;2.38;;;;;;;;;;5113032;28;20066;-71
2022/04/10 04:15:02;;;;;;;18.67;2.90;;;;;;;;;;5111936;28;20048;-70
2022/04/10 04:17:29;;;;;;;13.23;2.15;;;;;;;;;;5113934;28;20075;-70
2022/04/10 04:19:55;;;;;;;11.13;2.17;;;;;;;;;;5109621;28;20054;-70
2022/04/10 04:22:21;;;;;;;11.30;2.40;;;;;;;;;;5094337;28;20063;-70
2022/04/10 04:24:47;;;;;;;14.30;2.63;;;;;;;;;;5111529;28;20048;-70
2022/04/10 04:27:13;;;;;;;16.40;2.38;;;;;;;;;;5111528;28;20043;-70
2022/04/10 04:29:39;;;;;;;9.02;2.10;;;;;;;;;;5112509;28;20062;-70
2022/04/10 04:32:06;;;;;;;11.52;2.55;;;;;;;;;;5107007;28;20108;-71
2022/04/10 04:34:32;;;;;;;14.98;2.42;;;;;;;;;;5088293;28;20080;-70
2022/04/10 04:36:58;;;;;;;11.65;1.80;;;;;;;;;;5062256;28;20047;-70
2022/04/10 04:39:24;;;;;;;12.75;2.20;;;;;;;;;;5110733;28;20486;-70
2022/04/10 04:41:50;;;;;;;9.95;2.25;;;;;;;;;;5106118;28;20101;-71
2022/04/10 04:44:17;;;;;;;11.93;2.15;;;;;;;;;;5113698;28;20046;-70
2022/04/10 04:46:43;;;;;;;9.05;2.10;;;;;;;;;;5094472;28;20051;-69
2022/04/10 04:49:09;;;;;;;9.80;1.77;;;;;;;;;;5111741;28;20047;-70
2022/04/10 04:51:36;;;;;;;11.13;1.83;;;;;;;;;;5106299;28;20044;-71
2022/04/10 04:54:09;;;;;;;8.60;1.83;;;;;;;;;;5112168;28;20121;-70
2022/04/10 04:56:35;;;;;;;6.60;1.52;;;;;;;;;;5109515;28;20422;-71
2022/04/10 04:59:01;;;;;;;9.85;1.58;;;;;;;;;;5108294;28;20043;-70
2022/04/10 05:01:27;;;;;;;10.93;1.52;;;;;;;;;;5109894;28;20051;-70
2022/04/10 05:03:53;;;;;;;7.55;1.30;;;;;;;;;;5113117;28;20051;-71
2022/04/10 05:06:20;;;;;;;7.15;1.30;;;;;;;;;;5112970;28;20070;-70
2022/04/10 05:08:49;;;;;;;6.65;1.33;;;;;;;;;;5113307;28;20047;-70
2022/04/10 05:11:15;;;;;;;9.57;1.80;;;;;;;;;;5113080;28;20043;-70
2022/04/10 05:13:42;;;;;;;6.70;1.60;;;;;;;;;;5112911;28;20059;-70
2022/04/10 05:16:08;;;;;;;9.95;1.80;;;;;;;;;;5094611;28;20047;-70
2022/04/10 05:18:34;;;;;;;5.68;1.40;;;;;;;;;;5111269;28;20080;-71
2022/04/10 05:21:01;;;;;;;9.93;1.42;;;;;;;;;;5108981;28;20127;-71
2022/04/10 05:23:27;;;;;;;10.35;1.70;;;;;;;;;;5112776;28;20143;-70
2022/04/10 05:25:53;;;;;;;6.38;1.27;;;;;;;;;;5112564;28;20055;-70
2022/04/10 05:28:19;;;;;;;7.20;1.50;;;;;;;;;;5111378;28;20051;-71
2022/04/10 05:30:45;;;;;;;6.45;1.35;;;;;;;;;;5110801;28;20183;-70
2022/04/10 05:33:12;;;;;;;6.38;1.60;;;;;;;;;;5113000;28;20115;-70
2022/04/10 05:35:38;;;;;;;8.15;1.38;;;;;;;;;;5102582;28;20032;-71
2022/04/10 05:38:04;;;;;;;9.18;1.50;;;;;;;;;;5086536;28;20127;-71
2022/04/10 05:40:30;;;;;;;7.63;1.10;;;;;;;;;;5112464;28;20437;-70
2022/04/10 05:42:56;;;;;;;8.45;1.50;;;;;;;;;;5096056;28;20504;-71
2022/04/10 05:45:22;;;;;;;7.88;1.50;;;;;;;;;;5112565;28;20492;-70
2022/04/10 05:47:49;;;;;;;7.43;1.38;;;;;;;;;;5107707;28;20052;-71
2022/04/10 05:50:15;;;;;;;6.35;1.25;;;;;;;;;;5093207;28;20048;-70
2022/04/10 05:52:43;;;;;;;8.82;1.33;;;;;;;;;;5112391;28;20522;-71
2022/04/10 05:55:10;;;;;;;7.15;1.70;;;;;;;;;;5112093;28;20031;-71
2022/04/10 05:57:36;;;;;;;7.28;1.38;;;;;;;;;;5078215;28;20036;-70
2022/04/10 06:00:05;;;;;;;8.40;1.67;;;;;;;;;;5071059;28;20401;-71
2022/04/10 06:02:31;;;;;;;9.65;1.50;;;;;;;;;;5112204;28;20409;-71
2022/04/10 06:04:57;;;;;;;7.50;1.40;;;;;;;;;;5106624;28;20398;-70
2022/04/10 06:07:23;;;;;;;7.38;1.30;;;;;;;;;;5102459;28;20480;-70
2022/04/10 06:09:50;;;;;;;5.78;1.30;;;;;;;;;;5099655;28;20061;-71
2022/04/10 06:12:16;;;;;;;6.70;1.40;;;;;;;;;;5110656;28;20052;-71
2022/04/10 06:14:42;;;;;;;8.35;1.70;;;;;;;;;;5114373;28;20127;-70
2022/04/10 06:17:08;;;;;;;6.80;1.42;;;;;;;;;;5114361;28;20050;-70
2022/04/10 06:19:34;;;;;;;11.60;2.15;;;;;;;;;;5096754;28;20052;-71
2022/04/10 06:22:00;;;;;;;7.93;1.70;;;;;;;;;;5110594;28;20046;-71
2022/04/10 06:24:27;;;;;;;7.07;1.60;;;;;;;;;;5106235;28;20406;-70
2022/04/10 06:26:53;;;;;;;8.10;1.55;;;;;;;;;;5115208;28;20157;-70
2022/04/10 06:29:19;;;;;;;7.63;1.50;;;;;;;;;;5115591;28;20089;-71
2022/04/10 06:31:46;;;;;;;8.93;1.60;;;;;;;;;;5115188;28;20096;-70
2022/04/10 06:34:12;;;;;;;8.82;1.50;;;;;;;;;;5107700;28;20036;-71
2022/04/10 06:36:38;;;;;;;8.02;1.65;;;;;;;;;;5109795;28;20050;-72
2022/04/10 06:39:04;;;;;;;10.77;1.67;;;;;;;;;;5112307;28;20044;-71
2022/04/10 06:41:31;;;;;;;7.50;1.40;;;;;;;;;;5112997;28;20043;-71
2022/04/10 06:43:57;;;;;;;7.15;1.70;;;;;;;;;;5115041;28;20122;-71
2022/04/10 06:46:23;;;;;;;7.75;1.35;;;;;;;;;;5093915;28;20410;-72
2022/04/10 06:48:50;;;;;;;6.72;1.50;;;;;;;;;;5115343;28;20097;-72
2022/04/10 06:51:16;;;;;;;7.53;1.55;;;;;;;;;;5092880;28;20046;-71
2022/04/10 06:53:43;;;;;;;7.82;1.30;;;;;;;;;;5108351;28;20048;-71
2022/04/10 06:56:09;;;;;;;8.88;1.23;;;;;;;;;;5080052;28;20051;-69
2022/04/10 06:58:35;;;;;;;8.50;1.10;;;;;;;;;;5112832;28;20104;-71
2022/04/10 07:01:01;;;;;;;7.53;1.10;;;;;;;;;;5107765;28;20631;-71
2022/04/10 07:03:27;;;;;;;6.88;1.30;;;;;;;;;;5115323;28;20047;-71
2022/04/10 07:05:53;;;;;;;8.85;1.25;;;;;;;;;;5115173;28;20545;-71
2022/04/10 07:08:19;;;;;;;6.55;1.38;;;;;;;;;;5114412;28;20078;-70
2022/04/10 07:10:45;;;;;;;8.18;1.10;;;;;;;;;;5116173;28;20051;-70
2022/04/10 07:13:17;;;;;;;9.35;1.38;;;;;;;;;;5114993;28;20077;-71
2022/04/10 07:15:43;;;;;;;;;;;;;;;;;;5117639;28;20044;-73
2022/04/10 07:18:09;;;;;;;10.43;1.95;;;;;;;;;;5114128;28;19973;-71
2022/04/10 07:20:35;;;;;;;7.53;1.42;;;;;;;;;;5106020;28;20044;-71
2022/04/10 07:25:45;;;;;;;9.45;1.98;;;;;;;;;;5112999;28;20043;-70
2022/04/10 07:28:11;;;;;;;10.25;1.33;;;;;;;;;;5106428;28;20082;-70
2022/04/10 07:30:37;;;;;;;6.38;1.40;;;;;;;;;;5115042;28;20104;-71
2022/04/10 07:33:03;;;;;;;8.95;1.50;;;;;;;;;;5114679;28;20035;-70
2022/04/10 07:35:29;;;;;;;8.15;1.50;;;;;;;;;;5109192;28;20075;-71
2022/04/10 07:37:55;;;;;;;8.02;1.50;;;;;;;;;;5114926;28;20123;-71
2022/04/10 07:40:22;;;;;;;7.63;1.55;;;;;;;;;;5112127;28;20578;-71
2022/04/10 07:42:48;;;;;;;7.72;1.67;;;;;;;;;;5113922;28;20036;-69
2022/04/10 07:48:00;;;;;;;6.63;1.15;;;;;;;;;;5114146;28;20048;-70
2022/04/10 07:50:26;;;;;;;6.55;1.25;;;;;;;;;;5114445;28;20040;-70
2022/04/10 07:52:53;;;;;;;5.65;1.00;;;;;;;;;;5114032;28;20035;-71
2022/04/10 07:55:19;;;;;;;7.20;1.33;;;;;;;;;;5110567;28;20066;-70
2022/04/10 07:57:45;;;;;;;6.00;1.42;;;;;;;;;;5082336;28;20123;-71
2022/04/10 08:00:11;;;;;;;7.53;1.30;;;;;;;;;;5113119;28;20043;-71
2022/04/10 08:02:38;;;;;;;7.55;1.77;;;;;;;;;;5095939;28;20115;-70
2022/04/10 08:05:04;;;;;;;8.48;1.52;;;;;;;;;;5114563;28;20123;-70
2022/04/10 08:07:30;;;;;;;8.38;1.35;;;;;;;;;;5074093;28;20044;-71
2022/04/10 08:09:56;;;;;;;8.48;2.33;;;;;;;;;;5113918;28;20046;-72
2022/04/10 08:12:23;;;;;;;7.13;1.50;;;;;;;;;;5096202;28;20039;-72
2022/04/10 08:14:49;;;;;;;7.43;1.55;;;;;;;;;;5106265;28;20506;-72
2022/04/10 08:17:15;;;;;;;5.53;1.45;;;;;;;;;;5083467;28;20048;-71
2022/04/10 08:19:41;;;;;;;11.02;1.88;;;;;;;;;;5096367;28;20132;-71
2022/04/10 08:22:07;;;;;;;11.07;1.90;;;;;;;;;;5076078;28;20039;-71
2022/04/10 08:24:34;;;;;;;12.20;2.10;;;;;;;;;;5113943;28;20046;-71
2022/04/10 08:27:00;;;;;;;15.10;2.28;;;;;;;;;;5113735;28;20097;-70
2022/04/10 08:29:26;;;;;;;8.60;1.50;;;;;;;;;;5114246;28;20130;-71
2022/04/10 08:31:52;;;;;;;12.82;2.20;;;;;;;;;;5095668;28;20490;-71
2022/04/10 08:34:18;;;;;;;13.52;2.10;;;;;;;;;;5109757;28;20042;-70
2022/04/10 08:36:44;;;;;;;8.88;1.90;;;;;;;;;;5104480;28;20044;-71
2022/04/10 08:39:10;;;;;;;11.57;1.95;;;;;;;;;;5111041;28;20406;-70
2022/04/10 08:41:37;;;;;;;7.80;1.77;;;;;;;;;;5113514;28;20035;-71
2022/04/10 08:44:04;;;;;;;8.35;1.58;;;;;;;;;;5096711;28;20444;-70
2022/04/10 08:46:31;;;;;;;12.05;2.33;;;;;;;;;;5112394;28;20094;-70
2022/04/10 08:48:59;;;;;;;7.88;1.70;;;;;;;;;;5111546;28;20387;-72
2022/04/10 08:51:25;;;;;;;14.70;2.42;;;;;;;;;;5110067;28;20046;-70
2022/04/10 08:53:53;;;;;;;9.85;1.88;;;;;;;;;;5111233;28;20040;-71
2022/04/10 08:56:19;;;;;;;11.27;2.03;;;;;;;;;;5113932;28;20054;-71
2022/04/10 08:58:45;;;;;;;10.38;1.63;;;;;;;;;;5112265;28;20512;-71
2022/04/10 09:01:11;;;;;;;11.95;2.00;;;;;;;;;;5112596;28;20044;-71
2022/04/10 09:03:38;;;;;;;10.38;2.20;;;;;;;;;;5090857;28;20515;-71
2022/04/10 09:06:05;;;;;;;13.82;2.13;;;;;;;;;;5109138;28;20039;-71
2022/04/10 09:08:32;;;;;;;11.57;1.90;;;;;;;;;;5093881;28;20055;-72
2022/04/10 09:10:59;;;;;;;10.05;1.73;;;;;;;;;;5093253;28;20494;-70
2022/04/10 09:13:30;;;;;;;9.75;1.60;;;;;;;;;;5106338;28;20055;-70
2022/04/10 09:16:02;;;;;;;10.90;1.77;;;;;;;;;;5110263;28;20048;-70
2022/04/10 09:18:29;;;;;;;9.18;2.10;;;;;;;;;;5113877;28;20051;-71
2022/04/10 09:21:08;;;;;;;10.93;2.83;;;;;;;;;;5095275;28;20044;-71
2022/04/10 09:23:34;;;;;;;11.38;2.20;;;;;;;;;;5111838;28;20065;-71
2022/04/10 09:26:01;;;;;;;17.33;2.10;;;;;;;;;;5094864;28;20051;-71
2022/04/10 09:28:45;;;;;;;11.52;1.90;;;;;;;;;;5112649;28;20044;-71
2022/04/10 09:31:31;;;;;;;11.23;2.17;;;;;;;;;;5112687;28;20094;-70
2022/04/10 09:33:59;;;;;;;10.20;2.13;;;;;;;;;;5113005;28;20046;-70
2022/04/10 09:36:38;;;;;;;8.50;1.70;;;;;;;;;;5112108;28;20509;-71
2022/04/10 09:39:08;;;;;;;13.63;2.40;;;;;;;;;;5099770;28;20055;-71
2022/04/10 09:41:35;;;;;;;12.55;2.75;;;;;;;;;;5111208;28;20055;-70
2022/04/10 09:44:01;;;;;;;11.13;2.30;;;;;;;;;;5106158;28;20416;-72
2022/04/10 09:46:30;;;;;;;12.63;2.50;;;;;;;;;;5105117;28;20053;-71
2022/04/10 09:48:57;;;;;;;9.20;1.70;;;;;;;;;;5086188;28;20077;-70
2022/04/10 09:51:23;;;;;;;12.13;1.90;;;;;;;;;;5077199;28;20044;-71
2022/04/10 09:54:03;;;;;;;9.52;2.20;;;;;;;;;;5112298;28;20043;-69
2022/04/10 09:56:29;;;;;;;12.05;2.08;;;;;;;;;;5109275;28;20083;-71
2022/04/10 09:59:00;;;;;;;13.15;2.65;;;;;;;;;;5109504;28;20063;-71
2022/04/10 10:01:27;;;;;;;12.00;2.40;;;;;;;;;;5109644;28;20437;-71
2022/04/10 10:03:53;;;;;;;10.48;1.60;;;;;;;;;;5107959;28;20039;-70
2022/04/10 10:06:19;;;;;;;9.55;2.20;;;;;;;;;;5088138;28;20050;-71
2022/04/10 10:08:45;;;;;;;10.20;2.00;;;;;;;;;;5111151;28;20043;-71
2022/04/10 10:11:11;;;;;;;10.38;2.47;;;;;;;;;;5111456;28;20044;-71
2022/04/10 10:13:38;;;;;;;11.45;2.22;;;;;;;;;;5106797;28;20124;-71
2022/04/10 10:16:04;;;;;;;9.30;2.28;;;;;;;;;;5112232;28;20097;-70
2022/04/10 10:18:31;;;;;;;8.77;2.20;;;;;;;;;;5093610;28;20545;-70
2022/04/10 10:20:57;;;;;;;7.88;2.00;;;;;;;;;;5108133;28;20048;-70
2022/04/10 10:23:24;;;;;;;6.32;1.80;;;;;;;;;;5094326;28;20054;-71
2022/04/10 10:25:52;;;;;;;9.75;1.90;;;;;;;;;;5112997;28;20043;-71
2022/04/10 10:28:28;;;;;;;9.23;1.65;;;;;;;;;;5093616;28;20046;-69
2022/04/10 10:30:54;;;;;;;6.97;1.20;;;;;;;;;;5113703;28;20097;-72
2022/04/10 10:33:21;;;;;;;5.93;1.15;;;;;;;;;;5113375;28;20043;-72
2022/04/10 10:35:51;;;;;;;7.75;2.00;;;;;;;;;;5113346;28;20069;-72
2022/04/10 10:38:22;;;;;;;7.63;1.83;;;;;;;;;;5111810;28;20039;-72
2022/04/10 10:40:49;;;;;;;21.45;11.63;;;;;;;;;;5112886;28;20040;-71
2022/04/10 10:43:20;;;;;;;10.20;3.33;;;;;;;;;;5104520;28;20048;-71
2022/04/10 10:45:46;;;;;;;8.70;1.73;;;;;;;;;;5112794;28;20124;-71
2022/04/10 10:48:31;;;;;;;7.35;1.90;;;;;;;;;;5112995;28;20055;-71
2022/04/10 10:51:00;;;;;;;9.65;1.90;;;;;;;;;;5098252;28;20490;-72
2022/04/10 10:53:45;;;;;;;11.60;2.03;;;;;;;;;;5098372;28;20440;-70
2022/04/10 10:56:21;;;;;;;10.48;2.22;;;;;;;;;;5098338;28;20043;-72
2022/04/10 10:58:48;;;;;;;9.77;2.00;;;;;;;;;;5116438;28;20063;-72
2022/04/10 11:01:23;;;;;;;10.93;1.70;;;;;;;;;;5116263;28;20494;-71
2022/04/10 11:04:19;;;;;;;9.45;1.67;;;;;;;;;;5116374;28;20043;-71
2022/04/10 11:06:50;;;;;;;8.75;1.60;;;;;;;;;;5103848;28;20056;-71
2022/04/10 11:09:24;;;;;;;10.00;1.80;;;;;;;;;;5116849;28;20051;-71
2022/04/10 11:11:51;;;;;;;9.68;2.13;;;;;;;;;;5116001;28;20083;-70
2022/04/10 11:14:33;;;;;;;10.65;1.80;;;;;;;;;;5111045;28;20048;-72
2022/04/10 11:17:09;;;;;;;10.18;2.47;;;;;;;;;;5107623;28;20508;-70
2022/04/10 11:19:36;;;;;;;9.63;1.67;;;;;;;;;;5116049;28;20175;-70
2022/04/10 11:22:03;;;;;;;10.07;2.25;;;;;;;;;;5094316;28;20048;-70
2022/04/10 11:24:29;;;;;;;7.47;1.60;;;;;;;;;;5095410;28;20048;-72
2022/04/10 11:26:55;;;;;;;10.63;1.65;;;;;;;;;;5106069;28;20059;-71
2022/04/10 11:29:21;;;;;;;11.07;2.17;;;;;;;;;;5116630;28;20031;-73
2022/04/10 11:31:52;;;;;;;15.57;4.18;;;;;;;;;;5115478;28;20047;-71
2022/04/10 11:34:23;;;;;;;12.63;2.53;;;;;;;;;;5115687;28;20054;-72
2022/04/10 11:36:55;;;;;;;13.15;2.58;;;;;;;;;;5115332;28;20059;-71
2022/04/10 11:39:25;;;;;;;12.10;2.20;;;;;;;;;;5113207;28;20048;-71
2022/04/10 11:41:51;;;;;;;10.30;1.90;;;;;;;;;;5094619;28;20043;-72
2022/04/10 11:44:17;;;;;;;10.82;1.50;;;;;;;;;;5093932;28;20052;-71
2022/04/10 11:46:48;;;;;;;8.77;1.73;;;;;;;;;;5115470;28;20136;-71
2022/04/10 11:49:18;;;;;;;9.05;1.77;;;;;;;;;;5114764;28;20048;-72
2022/04/10 11:51:54;;;;;;;10.63;2.38;;;;;;;;;;5115128;28;20075;-71
2022/04/10 11:54:31;;;;;;;10.88;1.98;;;;;;;;;;5115207;28;20096;-71
2022/04/10 11:56:59;;;;;;;9.18;1.77;;;;;;;;;;5115618;28;20044;-71
2022/04/10 11:59:25;;;;;;;8.45;1.80;;;;;;;;;;5114937;28;20043;-71
2022/04/10 12:01:51;;;;;;;8.60;2.20;;;;;;;;;;5114048;28;20050;-71
2022/04/10 12:04:20;;;;;;;11.00;2.20;;;;;;;;;;5115177;28;20042;-70
2022/04/10 12:06:47;;;;;;;8.15;1.63;;;;;;;;;;5114486;28;20063;-71
2022/04/10 12:09:14;;;;;;;13.73;2.03;;;;;;;;;;5106027;28;20525;-71
2022/04/10 12:11:43;;;;;;;8.55;1.48;;;;;;;;;;5094090;28;20059;-71
2022/04/10 12:14:16;;;;;;;8.98;1.50;;;;;;;;;;5095381;28;20052;-71
2022/04/10 12:16:43;;;;;;;9.05;1.52;;;;;;;;;;5105062;28;20044;-71
2022/04/10 12:19:09;;;;;;;10.77;1.75;;;;;;;;;;5070449;28;20181;-71
2022/04/10 12:21:36;;;;;;;8.50;1.70;;;;;;;;;;5109051;28;20576;-71
2022/04/10 12:24:03;;;;;;;7.38;1.70;;;;;;;;;;5106148;28;20044;-71
2022/04/10 12:26:29;;;;;;;5.60;1.52;;;;;;;;;;5107110;28;20044;-71
2022/04/10 12:28:56;;;;;;;7.45;1.92;;;;;;;;;;5084804;28;20051;-71
2022/04/10 12:31:22;;;;;;;7.82;1.50;;;;;;;;;;5083961;28;20059;-71
2022/04/10 12:33:48;;;;;;;5.20;1.00;;;;;;;;;;5104140;28;20044;-71
2022/04/10 12:36:18;;;;;;;10.02;1.58;;;;;;;;;;5105289;28;20047;-71
2022/04/10 12:38:44;;;;;;;9.63;1.50;;;;;;;;;;5084233;28;20065;-71
2022/04/10 12:41:10;;;;;;;10.07;1.63;;;;;;;;;;5102812;28;20051;-72
2022/04/10 12:43:36;;;;;;;7.88;1.50;;;;;;;;;;5106513;28;20047;-71
2022/04/10 12:46:12;;;;;;;7.95;1.50;;;;;;;;;;5086501;28;20056;-72
2022/04/10 12:48:38;;;;;;;10.73;1.55;;;;;;;;;;5109004;28;20051;-71
2022/04/10 12:51:05;;;;;;;9.02;1.63;;;;;;;;;;5102259;28;20051;-71
2022/04/10 12:53:31;;;;;;;8.52;1.38;;;;;;;;;;5105275;28;20048;-71
2022/04/10 12:55:57;;;;;;;9.80;1.58;;;;;;;;;;5101950;28;20715;-71
2022/04/10 12:58:29;;;;;;;9.10;1.70;;;;;;;;;;5102962;28;20085;-72
2022/04/10 13:00:56;;;;;;;9.93;1.70;;;;;;;;;;5104260;28;20056;-72
2022/04/10 13:03:29;;;;;;;6.78;1.48;;;;;;;;;;5108881;28;20043;-70
2022/04/10 13:05:59;;;;;;;10.95;1.92;;;;;;;;;;5107779;28;20124;-72
2022/04/10 13:08:27;;;;;;;7.32;1.23;;;;;;;;;;5092000;28;20036;-73
2022/04/10 13:10:53;;;;;;;5.82;1.15;;;;;;;;;;5113432;28;20047;-72
2022/04/10 13:13:20;;;;;;;8.95;1.30;;;;;;;;;;5113420;28;20056;-71
2022/04/10 13:15:46;;;;;;;8.88;1.20;;;;;;;;;;5113107;28;20047;-72
2022/04/10 13:18:12;;;;;;;7.07;1.30;;;;;;;;;;5113693;28;20044;-70
2022/04/10 13:20:39;;;;;;;6.78;1.25;;;;;;;;;;5091925;28;20406;-72
2022/04/10 13:23:05;;;;;;;10.15;1.40;;;;;;;;;;5095241;28;20075;-71
2022/04/10 13:25:36;;;;;;;8.63;1.42;;;;;;;;;;5114043;28;20036;-72
2022/04/10 13:28:03;;;;;;;5.60;1.05;;;;;;;;;;5114286;28;20055;-72
2022/04/10 13:30:29;;;;;;;7.18;1.17;;;;;;;;;;5114301;28;20051;-71
2022/04/10 13:32:56;;;;;;;8.05;1.45;;;;;;;;;;5096548;28;20047;-71
2022/04/10 13:35:22;;;;;;;9.05;1.65;;;;;;;;;;5114087;28;20047;-71
2022/04/10 13:37:48;;;;;;;10.35;1.55;;;;;;;;;;5110609;28;20048;-72
2022/04/10 13:40:16;;;;;;;6.82;1.40;;;;;;;;;;5110293;28;20495;-71
2022/04/10 13:42:43;;;;;;;6.93;1.50;;;;;;;;;;5113907;28;20043;-70
2022/04/10 13:45:09;;;;;;;7.03;1.40;;;;;;;;;;5112979;28;20105;-70
2022/04/10 13:47:35;;;;;;;9.10;1.15;;;;;;;;;;5111100;28;20067;-72
2022/04/10 13:50:02;;;;;;;7.38;1.25;;;;;;;;;;5108128;28;20043;-71
2022/04/10 13:52:28;;;;;;;7.10;1.35;;;;;;;;;;5097655;28;20044;-71
2022/04/10 13:54:54;;;;;;;9.68;1.60;;;;;;;;;;5086587;28;20050;-71
2022/04/10 13:57:20;;;;;;;7.13;1.10;;;;;;;;;;5108504;28;20039;-71
2022/04/10 13:59:47;;;;;;;7.60;1.20;;;;;;;;;;5105980;28;20043;-71
2022/04/10 14:02:13;;;;;;;4.80;1.65;;;;;;;;;;5101113;28;20044;-72
2022/04/10 14:04:39;;;;;;;9.30;1.65;;;;;;;;;;5101687;28;20055;-73
2022/04/10 14:07:05;;;;;;;7.32;1.75;;;;;;;;;;5100244;28;20040;-71
2022/04/10 14:09:31;;;;;;;7.93;2.10;;;;;;;;;;5106925;28;20047;-71
2022/04/10 14:11:58;;;;;;;11.38;4.63;;;;;;;;;;5105247;28;20055;-72
2022/04/10 14:14:24;;;;;;;12.55;4.60;;;;;;;;;;5082610;28;20035;-70
2022/04/10 14:16:50;;;;;;;10.60;2.53;;;;;;;;;;5105168;28;20048;-71
2022/04/10 14:19:16;;;;;;;6.20;1.30;;;;;;;;;;5106144;28;20055;-71
2022/04/10 14:21:42;;;;;;;8.88;1.75;;;;;;;;;;5102853;28;20044;-71
2022/04/10 14:24:08;;;;;;;6.18;1.60;;;;;;;;;;5110837;28;20055;-71
2022/04/10 14:26:34;;;;;;;7.90;1.90;;;;;;;;;;5110782;28;20054;-70
2022/04/10 14:29:00;;;;;;;9.10;1.42;;;;;;;;;;5102959;28;20048;-72
2022/04/10 14:31:26;;;;;;;6.43;1.35;;;;;;;;;;5102756;28;20040;-70
2022/04/10 14:33:52;;;;;;;6.15;1.10;;;;;;;;;;5095300;28;20048;-72
2022/04/10 14:36:18;;;;;;;9.45;1.30;;;;;;;;;;5114570;28;20058;-70
2022/04/10 14:38:44;;;;;;;7.28;1.20;;;;;;;;;;5088031;28;20040;-71
2022/04/10 14:41:10;;;;;;;9.25;1.40;;;;;;;;;;5113667;28;21776;-72